Historyczne dane pomiarowe

Dodano dane terminowe – wersja testowa.

Dane z okresu 1951-2019

Wersja bazy: 1.34 [2019-03-16, lista zmian], aktualizacja planowana na 2019-04-15

Dane meteo z obszaru Polski uzyskane na podstawie danych udostępnionych przez Instytut Meteorologii i Gospodarki Wodnej – Państwowy Instytut Badawczy.

 

Wybierz Datę:    

       

TemperaturaWilgotnośćWiatrCiśnienieOpadyŚniegCzas trwania zjawisk
 Stacja t tx tn tng RH VA  wxwx mslp ppp RRR   cm mm wxwxwxwxwxwxwx
1973-04-17 -4.9 -1.8 -6.5- 94.3 4.0 7.3 18.6 24.0 19.2- 832.4 5.0 1.4 3.6113 4.4 2.3- 11.7- 22.2---
1973-04-18 -7.1 -6.1 -8.7- 94.4 3.4 7.4 13.1 24.0 1.8- 826.3 2.5 0.6 1.9117 4.2 6.0- 18.6- 20.3---
1973-04-19 -6.0 -4.2 -7.4- 96.8 3.8 7.6 7.3 5.3 0.8- 822.5 9.6 9.6 0.0118 4.1 0.7- 16.3- 22.0---
1973-04-20 -6.0 -4.5 -7.2- 95.6 3.8 7.8 8.3 11.5 3.8- 823.5 26.1 6.2 19.9128 3.9 1.4- 12.3- 22.1---
1973-04-21 -5.4 -5.0 -5.9- 97.1 4.0 8.0 16.9 18.5 18.5- 822.5 34.9 33.7 1.2150 3.8 0.0- 22.8- 23.8---
1973-04-22 -4.0 0.9 -5.6- 96.3 4.4 7.6 3.1 1.7 0.0- 827.5 0.1 0.0 0.1180 3.9 0.3- 5.3- 21.0---
1973-04-23 -2.8 0.9 -5.8- 88.6 4.5 3.1 4.9 1.3 0.0- 833.5 0.0 0.0 0.0175 4.1 11.7--- 2.6- 2.0-
1973-04-24 -2.0 -0.8 -3.2- 92.6 4.9 5.0 7.5 0.0 0.0- 831.7 0.0 0.0 0.0173 4.2 6.4--- 9.3- 8.0-
1973-04-25 -4.8 -1.8 -5.5- 97.3 4.1 7.8 6.3 0.0 0.0- 830.5 0.2 0.1 0.1170 4.1 0.0--- 24.0---
1973-04-26 -3.9 -1.8 -7.2- 96.0 4.4 5.3 6.5 1.1 0.0- 834.0 0.0 0.0 0.0168 3.9 3.2- 2.0- 5.8- 5.0-
1973-04-27 -0.8 1.7 -3.4- 79.1 4.5 2.1 6.5 0.8 0.0- 833.9 0.0 0.0 0.0165 4.1 11.1- 0.3--- 5.0-
1973-04-28 2.1 4.8 -1.1- 76.9 5.5 5.8 8.4 3.7 0.0- 830.3 0.0 0.0 0.0160 4.1 9.3--- 1.3---
1973-04-29 2.7 4.2 1.5- 99.5 7.4 7.3 9.8 8.5 2.8- 827.3 1.4 0.8 0.6140 4.3 1.3 1.2-- 23.0---
1973-04-30 2.8 5.6 -0.4- 81.6 6.2 4.6 10.8 13.2 6.3- 835.8 0.0 0.0 0.0130 4.9 9.6--- 5.6---
1973-05-01 7.2 10.7 3.4- 76.4 7.7 4.3 14.9 24.0 6.1- 836.1 0.0 0.0 0.0120 4.9 12.5-------
1973-05-02 8.4 11.5 6.0- 85.5 9.4 6.4 7.5 8.2 0.0- 836.1 0.3 0.0 0.3110 4.3 4.1--- 0.2-- 0.8
1973-05-03 6.1 9.0 5.0- 95.3 9.0 5.6 10.9 12.5 3.8- 833.3 0.3 0.3 0.0100 4.4 2.4 3.6-- 16.1-- 2.7
1973-05-04 8.6 11.8 4.9- 78.6 8.9 2.6 6.5 3.7 0.0- 837.9 0.0 0.0 0.0 95 4.5 13.7---- 5.0- 3.6
1973-05-05 11.4 13.8 9.8- 76.1 10.3 5.6 13.5 24.0 11.3- 840.1 0.0 0.0 0.0 87 4.7 4.9-------
1973-05-06 6.7 12.1 3.5- 96.4 9.6 6.4 8.0 7.2 0.0- 838.7 1.2 0.9 0.3 60 6.0 0.0 6.1- 0.8 12.2---
1973-05-07 1.9 3.7 0.6- 97.3 6.8 6.8 4.8 0.3 0.0- 836.0 3.0 0.0 3.0 50 6.2 0.5 0.4-- 16.7---
1973-05-08 0.1 2.8 -1.6- 99.1 6.1 7.8 9.3 9.0 0.0- 834.6 10.8 10.8 0.0 30 6.9 0.0 0.5 7.3 1.3 19.8---
1973-05-09 -1.6 0.6 -2.3- 98.5 5.4 7.5 8.4 8.2 0.0- 837.0 1.5 1.5 0.0 35 6.5 2.0- 3.0- 22.6- 2.0 0.6
1973-05-10 -0.6 1.8 -3.9- 94.0 5.6 3.4 4.6 0.0 0.0- 836.8 0.0 0.0 0.0 35 6.0 10.3--- 10.7- 8.0-
1973-05-11 -0.4 1.7 -3.1- 97.6 5.9 7.0 10.8 9.8 8.7- 835.6 2.6 2.6 0.0 30 6.7 2.1 4.2-- 20.5---
1973-05-12 -2.3 1.0 -5.2- 82.8 4.2 6.4 12.5 17.3 5.2- 840.2 0.1 0.0 0.1 28 6.4 10.7--- 6.4---
1973-05-13 1.6 5.1 -2.7- 77.9 5.3 6.9 8.9 9.2 2.0- 840.9 0.0 0.0 0.0 25 5.9 9.7 0.3 1.8- 2.2---
1973-05-14 4.5 7.3 2.7- 72.0 6.1 6.9 11.8 21.4 2.1- 838.8 5.6 0.4 5.2 20 6.0 3.8 1.6------
1973-05-15 -2.0 4.7 -4.1- 96.4 5.2 7.0 12.8 18.7 4.8- 836.8 2.3 1.4 0.9 18 6.7 3.6 1.1 11.8 3.5 19.3- 5.0 0.4
1973-05-16 -3.8 -1.4 -5.8- 96.8 4.5 7.6 8.5 8.5 0.8- 839.2 3.8 3.4 0.4 19 5.8 3.3- 13.4- 20.3- 3.0-
235.8 ms

 

Źródłem pochodzenia danych jest Instytut Meteorologii i Gospodarki Wodnej – Państwowy Instytut Badawczy. Dane Instytutu Meteorologii i Gospodarki Wodnej – Państwowego Instytutu Badawczego zostały przetworzone.

Dane źródłowe można odnaleźć na stronie https://dane.imgw.pl